Time;durP1;ratioP1;P1;durP2;ratioP2;P2;SDS_P1;SDS_P2;PMS_P1;PMS_P2;Temp;Humidity;BMP_temperature;BMP_pressure;BME280_temperature;BME280_humidity;BME280_pressure;Samples;Min_cycle;Max_cycle;Signal;HPM_P1;HPM_P2
2024/02/05 08:37:30;;;;;;;3.70;2.30;;;10.20;99.90;;;;;;4962381;23;20255;-75
2024/02/05 08:39:57;;;;;;;5.90;1.23;;;10.30;99.90;;;;;;4936160;29;20247;-78
2024/02/05 08:42:24;;;;;;;5.10;1.10;;;10.30;99.90;;;;;;4924297;29;20232;-77
2024/02/05 08:44:51;;;;;;;7.30;1.63;;;10.40;99.90;;;;;;4930981;29;20679;-76
2024/02/05 08:47:17;;;;;;;10.70;1.57;;;10.50;99.90;;;;;;4907513;29;20253;-76
2024/02/05 08:49:44;;;;;;;5.90;1.27;;;10.40;99.90;;;;;;4898696;29;20242;-76
2024/02/05 08:52:11;;;;;;;6.63;1.40;;;10.40;99.90;;;;;;4898558;29;20293;-77
2024/02/05 08:54:39;;;;;;;6.80;1.20;;;10.50;99.90;;;;;;4906776;29;20315;-77
2024/02/05 08:57:06;;;;;;;6.17;1.47;;;10.40;99.90;;;;;;4917708;29;20249;-78
2024/02/05 08:59:33;;;;;;;5.63;1.20;;;10.30;99.90;;;;;;4917424;29;20241;-76
2024/02/05 09:02:00;;;;;;;17.30;2.27;;;10.50;99.90;;;;;;4917474;29;20213;-77
2024/02/05 09:04:27;;;;;;;6.67;1.70;;;10.60;99.90;;;;;;4917506;29;20308;-77
2024/02/05 09:06:54;;;;;;;12.03;1.53;;;10.70;99.90;;;;;;4917378;29;20249;-79
2024/02/05 09:09:21;;;;;;;6.33;1.03;;;10.70;99.90;;;;;;4916892;29;20251;-76
2024/02/05 09:11:49;;;;;;;6.43;1.50;;;10.70;99.90;;;;;;4917318;29;20245;-76
2024/02/05 09:14:16;;;;;;;8.50;1.30;;;10.80;99.90;;;;;;4917008;29;20325;-77
2024/02/05 09:16:43;;;;;;;6.20;1.53;;;10.80;99.90;;;;;;4916944;29;20248;-76
2024/02/05 09:19:10;;;;;;;4.23;0.93;;;10.80;99.90;;;;;;4917413;29;20340;-75
2024/02/05 09:21:37;;;;;;;6.07;1.20;;;10.80;99.90;;;;;;4917603;29;20624;-76
2024/02/05 09:24:04;;;;;;;4.60;1.50;;;10.80;99.90;;;;;;4917218;29;20292;-76
2024/02/05 09:26:31;;;;;;;7.60;1.10;;;10.90;99.90;;;;;;4917040;29;20265;-77
2024/02/05 09:28:59;;;;;;;7.13;1.37;;;10.80;99.90;;;;;;4916973;29;20296;-76
2024/02/05 09:31:26;;;;;;;2.83;0.70;;;10.70;99.90;;;;;;4917001;29;20301;-77
2024/02/05 09:33:53;;;;;;;8.03;1.20;;;10.70;99.90;;;;;;4916861;29;20264;-76
2024/02/05 09:36:21;;;;;;;7.43;1.33;;;10.70;99.90;;;;;;4917102;29;20248;-77
2024/02/05 09:38:48;;;;;;;6.73;1.43;;;10.70;99.90;;;;;;4916839;29;20596;-77
2024/02/05 09:41:24;;;;;;;5.07;1.20;;;10.70;99.90;;;;;;4916875;29;20391;-77
2024/02/05 09:43:51;;;;;;;8.77;1.63;;;10.70;99.90;;;;;;4916671;29;20256;-77
2024/02/05 09:46:22;;;;;;;6.83;1.80;;;10.70;99.90;;;;;;4916726;29;20216;-77
2024/02/05 09:48:52;;;;;;;6.53;1.87;;;10.80;99.90;;;;;;4916432;29;20209;-76
2024/02/05 09:51:20;;;;;;;6.60;1.13;;;10.80;99.90;;;;;;4916651;29;20241;-75
2024/02/05 09:53:48;;;;;;;6.43;1.33;;;10.80;99.90;;;;;;4916330;29;20692;-76
2024/02/05 09:56:18;;;;;;;2.87;0.90;;;10.80;99.90;;;;;;4916801;29;20953;-75
2024/02/05 09:58:45;;;;;;;9.23;2.10;;;10.70;99.90;;;;;;4916866;29;20255;-76
2024/02/05 10:01:14;;;;;;;7.27;0.90;;;10.80;99.90;;;;;;4916754;29;20237;-77
2024/02/05 10:03:43;;;;;;;5.30;1.27;;;10.90;99.90;;;;;;4916570;29;20244;-77
2024/02/05 10:06:16;;;;;;;9.67;1.20;;;10.90;99.90;;;;;;4919401;29;20599;-76
2024/02/05 10:08:44;;;;;;;5.80;0.90;;;10.90;99.90;;;;;;4920608;29;20214;-76
2024/02/05 10:11:14;;;;;;;9.47;1.80;;;11.00;99.90;;;;;;4920797;29;20241;-79
2024/02/05 10:13:41;;;;;;;5.63;1.30;;;11.10;99.90;;;;;;4920828;29;20237;-77
2024/02/05 10:16:08;;;;;;;7.30;2.03;;;11.20;99.90;;;;;;4920663;29;20237;-80
2024/02/05 10:18:35;;;;;;;10.60;1.60;;;11.10;99.90;;;;;;4920299;29;20296;-78
2024/02/05 10:21:04;;;;;;;3.73;1.10;;;11.20;99.90;;;;;;4920553;29;20210;-76
2024/02/05 10:23:30;;;;;;;4.10;1.50;;;11.00;99.90;;;;;;4920483;29;20209;-76
2024/02/05 10:25:58;;;;;;;7.07;1.47;;;11.10;99.90;;;;;;4920743;29;20261;-77
2024/02/05 10:28:25;;;;;;;5.70;1.10;;;11.10;99.90;;;;;;4920459;29;20256;-78
2024/02/05 10:30:52;;;;;;;4.10;1.10;;;11.30;99.90;;;;;;4920077;29;20213;-82
2024/02/05 10:33:20;;;;;;;7.97;1.93;;;11.30;99.90;;;;;;4920250;29;20212;-76
2024/02/05 10:35:53;;;;;;;6.90;1.30;;;11.40;99.90;;;;;;4920041;29;20244;-76
2024/02/05 10:38:26;;;;;;;4.40;1.20;;;11.40;99.90;;;;;;4920081;29;20257;-77
2024/02/05 10:40:53;;;;;;;4.90;1.37;;;11.40;99.90;;;;;;4920223;29;20209;-76
2024/02/05 10:43:20;;;;;;;7.17;1.33;;;11.20;99.90;;;;;;4920081;29;20243;-79
2024/02/05 10:45:47;;;;;;;4.93;1.53;;;11.20;99.90;;;;;;4919802;29;20261;-76
2024/02/05 10:48:14;;;;;;;8.50;0.90;;;11.20;99.90;;;;;;4919720;29;20237;-76
2024/02/05 10:50:42;;;;;;;7.83;1.67;;;11.30;99.90;;;;;;4915710;29;20241;-77
2024/02/05 10:53:09;;;;;;;6.23;2.47;;;11.20;99.90;;;;;;4920673;29;20209;-80
2024/02/05 10:55:40;;;;;;;3.67;1.33;;;11.20;99.90;;;;;;4913267;29;20312;-77
2024/02/05 10:58:08;;;;;;;15.40;1.57;;;11.30;99.90;;;;;;4938607;29;20244;-80
2024/02/05 11:00:35;;;;;;;6.17;1.10;;;11.40;99.90;;;;;;4925152;29;20255;-82
2024/02/05 11:03:06;;;;;;;3.47;1.10;;;11.50;99.90;;;;;;4919832;29;20241;-77
2024/02/05 11:05:35;;;;;;;8.60;1.90;;;11.50;99.90;;;;;;4907388;29;20234;-79
2024/02/05 11:08:06;;;;;;;3.90;1.33;;;11.40;99.90;;;;;;4911304;29;20232;-77
2024/02/05 11:10:36;;;;;;;11.77;2.47;;;11.30;99.90;;;;;;4925360;29;20252;-78
2024/02/05 11:13:06;;;;;;;5.87;1.73;;;11.10;99.90;;;;;;4919717;29;20245;-77
2024/02/05 11:15:37;;;;;;;6.90;1.10;;;11.20;99.90;;;;;;4919297;29;20273;-76
2024/02/05 11:18:08;;;;;;;6.90;1.27;;;11.30;99.90;;;;;;4920303;29;20249;-77
2024/02/05 11:20:36;;;;;;;6.17;1.50;;;11.30;99.90;;;;;;4908689;29;20253;-76
2024/02/05 11:23:04;;;;;;;2.97;1.20;;;11.20;99.90;;;;;;4902657;29;20210;-80
2024/02/05 11:25:32;;;;;;;3.87;1.43;;;11.20;99.90;;;;;;4901561;29;20286;-77
2024/02/05 11:28:01;;;;;;;6.07;1.60;;;11.30;99.90;;;;;;4900530;29;20266;-77
2024/02/05 11:30:31;;;;;;;5.40;2.07;;;11.40;99.90;;;;;;4901595;29;20710;-77
2024/02/05 11:32:58;;;;;;;6.17;1.10;;;11.40;99.90;;;;;;4900983;29;20226;-77
2024/02/05 11:35:28;;;;;;;4.83;1.20;;;11.40;99.90;;;;;;4900174;29;20281;-76
2024/02/05 11:38:04;;;;;;;3.27;1.10;;;11.30;99.90;;;;;;4899974;29;20268;-74
2024/02/05 11:40:33;;;;;;;8.60;1.40;;;11.20;99.90;;;;;;4901764;29;20297;-75
2024/02/05 11:43:03;;;;;;;5.10;1.47;;;11.30;99.90;;;;;;4900295;29;20218;-76
2024/02/05 11:45:33;;;;;;;5.10;1.17;;;11.30;99.90;;;;;;4905966;29;20262;-74
2024/02/05 11:48:01;;;;;;;11.07;1.50;;;11.20;99.90;;;;;;4918778;29;20210;-77
2024/02/05 11:50:28;;;;;;;5.03;1.70;;;11.30;99.90;;;;;;4918958;29;20240;-75
2024/02/05 11:52:55;;;;;;;6.30;1.40;;;11.50;99.90;;;;;;4919032;29;20213;-76
2024/02/05 11:55:23;;;;;;;8.47;1.80;;;11.40;99.90;;;;;;4919338;29;20328;-75
2024/02/05 11:57:51;;;;;;;7.80;1.47;;;11.40;99.90;;;;;;4919157;29;20216;-76
2024/02/05 12:00:19;;;;;;;8.73;1.50;;;11.40;99.90;;;;;;4911137;29;20246;-76
2024/02/05 12:02:48;;;;;;;9.50;1.50;;;11.20;99.90;;;;;;4899802;29;20634;-77
2024/02/05 12:05:17;;;;;;;8.30;1.97;;;11.30;99.90;;;;;;4899903;29;20257;-74
2024/02/05 12:07:44;;;;;;;4.00;1.10;;;11.40;99.90;;;;;;4900829;29;20210;-75
2024/02/05 12:10:12;;;;;;;5.83;3.27;;;11.40;99.90;;;;;;4903533;29;20297;-76
2024/02/05 12:12:40;;;;;;;13.23;2.43;;;11.30;99.90;;;;;;4900638;29;20274;-76
2024/02/05 12:15:18;;;;;;;4.83;0.80;;;11.20;99.90;;;;;;4908295;29;20321;-74
2024/02/05 12:17:45;;;;;;;10.43;1.67;;;11.10;99.90;;;;;;4900027;29;20558;-77
2024/02/05 12:20:18;;;;;;;7.57;1.73;;;11.00;99.90;;;;;;4903426;29;20894;-74
2024/02/05 12:22:47;;;;;;;9.67;1.37;;;11.00;99.90;;;;;;4897257;29;20293;-74
2024/02/05 12:25:15;;;;;;;9.10;1.60;;;11.00;99.90;;;;;;4897247;29;20234;-75
2024/02/05 12:27:42;;;;;;;6.73;2.87;;;10.90;99.90;;;;;;4896687;29;20220;-75
2024/02/05 12:30:10;;;;;;;5.10;1.50;;;11.00;99.90;;;;;;4905877;29;20269;-76
2024/02/05 12:32:37;;;;;;;8.63;2.00;;;11.10;99.90;;;;;;4916035;29;20252;-75
2024/02/05 12:35:04;;;;;;;5.83;1.03;;;11.00;99.90;;;;;;4916212;29;20600;-77
2024/02/05 12:37:33;;;;;;;5.47;1.60;;;10.90;99.90;;;;;;4916454;29;20265;-77
2024/02/05 12:40:00;;;;;;;3.80;1.00;;;10.90;99.90;;;;;;4915723;29;20253;-82
2024/02/05 12:42:27;;;;;;;8.80;2.17;;;10.80;99.90;;;;;;4915358;29;20617;-76
2024/02/05 12:44:55;;;;;;;5.83;1.60;;;10.90;99.90;;;;;;4920138;29;20229;-79
2024/02/05 12:47:23;;;;;;;10.23;1.80;;;11.00;99.90;;;;;;4896593;29;20214;-76
2024/02/05 12:49:50;;;;;;;6.43;1.50;;;11.00;99.90;;;;;;4903744;29;20209;-76
2024/02/05 12:52:17;;;;;;;11.27;1.43;;;11.10;99.90;;;;;;4916207;29;20248;-74
2024/02/05 12:54:47;;;;;;;6.13;1.67;;;11.00;99.90;;;;;;4915266;29;20784;-77
2024/02/05 12:57:14;;;;;;;5.77;1.47;;;10.90;99.90;;;;;;4915935;29;20213;-78
2024/02/05 12:59:42;;;;;;;7.53;1.40;;;10.90;99.90;;;;;;4915892;29;20796;-77
2024/02/05 13:02:08;;;;;;;8.53;1.67;;;10.80;99.90;;;;;;4915872;29;20248;-76
2024/02/05 13:04:37;;;;;;;7.50;1.10;;;10.90;99.90;;;;;;4915796;29;20586;-77
2024/02/05 13:07:04;;;;;;;21.97;2.00;;;11.00;99.90;;;;;;4897842;29;20297;-76
2024/02/05 13:09:32;;;;;;;7.10;1.00;;;11.10;99.90;;;;;;4909201;29;20213;-76
2024/02/05 13:12:01;;;;;;;13.07;1.70;;;11.10;99.90;;;;;;4915651;29;20226;-77
2024/02/05 13:14:29;;;;;;;5.70;1.20;;;11.10;99.90;;;;;;4915335;29;20277;-76
2024/02/05 13:16:56;;;;;;;10.43;1.60;;;11.00;99.90;;;;;;4914659;29;20237;-77
2024/02/05 13:19:23;;;;;;;7.17;1.17;;;10.80;99.90;;;;;;4914538;29;20244;-77
2024/02/05 13:21:50;;;;;;;7.70;1.63;;;10.80;99.90;;;;;;4915048;29;20613;-77
2024/02/05 13:24:17;;;;;;;4.00;1.30;;;10.80;99.90;;;;;;4912514;29;20566;-77
2024/02/05 13:26:47;;;;;;;5.57;1.20;;;10.60;99.90;;;;;;4901261;29;20238;-76
2024/02/05 13:29:16;;;;;;;8.20;1.70;;;10.60;99.90;;;;;;4900191;29;20298;-78
2024/02/05 13:31:43;;;;;;;7.17;1.20;;;10.70;99.90;;;;;;4913568;29;20214;-77
2024/02/05 13:34:10;;;;;;;5.63;1.57;;;10.70;99.90;;;;;;4919584;29;20221;-76
2024/02/05 13:36:37;;;;;;;7.30;1.60;;;10.60;99.90;;;;;;4926878;29;20641;-77
2024/02/05 13:39:05;;;;;;;10.83;1.90;;;10.60;99.90;;;;;;4929422;29;20245;-77
2024/02/05 13:41:37;;;;;;;4.63;1.50;;;10.70;99.90;;;;;;4928679;29;20221;-75
2024/02/05 13:44:04;;;;;;;3.70;1.40;;;10.70;99.90;;;;;;4933479;29;20257;-76
2024/02/05 13:46:32;;;;;;;7.40;1.43;;;10.70;99.90;;;;;;4919553;29;20669;-78
2024/02/05 13:48:59;;;;;;;3.23;1.33;;;10.50;99.90;;;;;;4896975;29;20237;-78
2024/02/05 13:51:26;;;;;;;11.73;1.87;;;10.50;99.90;;;;;;4914905;29;20214;-76
2024/02/05 13:53:53;;;;;;;14.77;1.93;;;10.50;99.90;;;;;;4914747;29;20581;-78
2024/02/05 13:56:19;;;;;;;6.07;2.10;;;10.60;99.90;;;;;;4914367;29;20264;-77
2024/02/05 13:58:46;;;;;;;9.73;2.17;;;10.50;99.90;;;;;;4915439;29;20252;-73
2024/02/05 14:01:14;;;;;;;4.90;2.00;;;10.50;99.90;;;;;;4914854;29;20241;-73
2024/02/05 14:03:42;;;;;;;7.00;1.90;;;10.60;99.90;;;;;;4914790;29;20577;-75
2024/02/05 14:06:09;;;;;;;9.00;3.37;;;10.60;99.90;;;;;;4907216;29;20436;-75
2024/02/05 14:08:36;;;;;;;5.17;1.70;;;10.60;99.90;;;;;;4896099;29;20210;-77
2024/02/05 14:11:03;;;;;;;4.23;1.70;;;10.50;99.90;;;;;;4912403;29;20309;-76
2024/02/05 14:13:30;;;;;;;9.97;3.50;;;10.40;99.90;;;;;;4914578;29;20641;-76
2024/02/05 14:15:58;;;;;;;9.13;2.50;;;10.40;99.90;;;;;;4914628;29;20268;-75
2024/02/05 14:18:25;;;;;;;7.90;2.20;;;10.40;99.90;;;;;;4914859;29;20248;-76
2024/02/05 14:20:53;;;;;;;8.63;2.43;;;10.40;99.90;;;;;;4914110;29;20257;-77
2024/02/05 14:23:20;;;;;;;9.60;2.87;;;10.40;99.90;;;;;;4914859;29;20217;-78
2024/02/05 14:25:47;;;;;;;3.73;1.37;;;10.40;99.90;;;;;;4914840;29;20711;-76
2024/02/05 14:28:14;;;;;;;7.20;2.37;;;10.50;99.90;;;;;;4914767;29;20307;-76
2024/02/05 14:30:41;;;;;;;9.23;2.67;;;10.40;99.90;;;;;;4914601;29;20242;-79
2024/02/05 14:33:08;;;;;;;9.87;2.23;;;10.50;99.90;;;;;;4914696;29;20248;-79
2024/02/05 14:35:35;;;;;;;8.50;3.43;;;10.50;99.90;;;;;;4915274;29;20297;-79
2024/02/05 14:38:04;;;;;;;8.27;3.33;;;10.50;99.90;;;;;;4914978;29;20265;-75
2024/02/05 14:40:32;;;;;;;15.93;3.67;;;10.40;99.90;;;;;;4914534;29;20197;-78
2024/02/05 14:42:59;;;;;;;7.17;3.33;;;10.40;99.90;;;;;;4914953;29;20213;-79
2024/02/05 14:45:26;;;;;;;9.70;3.10;;;10.30;99.90;;;;;;4926771;29;20288;-78
2024/02/05 14:47:52;;;;;;;6.23;2.50;;;10.30;99.90;;;;;;4914018;29;20237;-79
2024/02/05 14:50:20;;;;;;;8.67;3.20;;;10.40;99.90;;;;;;4914407;29;20726;-77
2024/02/05 14:52:47;;;;;;;6.13;2.13;;;10.30;99.90;;;;;;4917661;29;20206;-79
2024/02/05 14:55:15;;;;;;;10.37;2.87;;;10.30;99.90;;;;;;4917641;29;20746;-78
2024/02/05 14:57:42;;;;;;;10.30;2.50;;;10.20;99.90;;;;;;4914448;29;20312;-74
2024/02/05 15:00:10;;;;;;;10.13;2.67;;;10.20;99.90;;;;;;4917505;29;20213;-75
2024/02/05 15:02:38;;;;;;;7.87;3.37;;;10.20;99.90;;;;;;4912812;29;20579;-74
2024/02/05 15:05:11;;;;;;;11.50;3.03;;;10.10;99.90;;;;;;4917385;29;20281;-76
2024/02/05 15:07:38;;;;;;;5.40;2.13;;;10.10;99.90;;;;;;4917096;29;20202;-74
2024/02/05 15:10:05;;;;;;;9.50;2.70;;;10.00;99.90;;;;;;4916852;29;20229;-76
2024/02/05 15:12:33;;;;;;;8.30;2.27;;;9.90;99.90;;;;;;4915457;29;20257;-76
2024/02/05 15:15:00;;;;;;;9.83;3.57;;;9.90;99.90;;;;;;4916519;29;20716;-75
2024/02/05 15:17:27;;;;;;;10.77;2.40;;;9.80;99.90;;;;;;4915854;29;20233;-76
2024/02/05 15:19:54;;;;;;;9.77;3.23;;;9.80;99.90;;;;;;4916957;29;20217;-77
2024/02/05 15:22:23;;;;;;;5.27;1.53;;;9.80;99.90;;;;;;4915257;29;20237;-76
2024/02/05 15:24:50;;;;;;;7.37;2.40;;;9.80;99.90;;;;;;4916474;29;20237;-76
2024/02/05 15:27:17;;;;;;;8.03;2.93;;;9.80;99.90;;;;;;4914355;29;20222;-76
2024/02/05 15:29:45;;;;;;;9.03;2.30;;;9.80;99.90;;;;;;4916326;29;20206;-76
2024/02/05 15:32:12;;;;;;;6.00;2.90;;;9.90;99.90;;;;;;4905636;29;20206;-77
2024/02/05 15:34:40;;;;;;;8.23;2.90;;;10.00;99.90;;;;;;4907203;29;20265;-77
2024/02/05 15:37:08;;;;;;;6.23;2.13;;;9.90;99.90;;;;;;4917276;29;20320;-75
2024/02/05 15:39:35;;;;;;;15.20;3.53;;;10.00;99.90;;;;;;4916000;29;20305;-74
2024/02/05 15:42:02;;;;;;;9.50;2.40;;;9.90;99.90;;;;;;4916402;29;20210;-76
2024/02/05 15:44:31;;;;;;;14.33;2.50;;;9.90;99.90;;;;;;4918453;29;20225;-76
2024/02/05 15:47:00;;;;;;;17.63;2.90;;;9.90;99.90;;;;;;4914064;29;20419;-77
2024/02/05 15:49:27;;;;;;;10.40;1.93;;;9.90;99.90;;;;;;4916358;29;20241;-75
2024/02/05 15:51:54;;;;;;;8.33;2.33;;;9.80;99.90;;;;;;4915218;29;20206;-78
2024/02/05 15:54:20;;;;;;;7.63;1.90;;;9.80;99.90;;;;;;4916278;29;20637;-76
2024/02/05 15:56:47;;;;;;;10.20;2.17;;;9.70;99.90;;;;;;4914449;29;20269;-77
2024/02/05 15:59:14;;;;;;;6.30;2.77;;;9.70;99.90;;;;;;4913657;29;20198;-74
2024/02/05 16:01:45;;;;;;;6.77;1.70;;;9.70;99.90;;;;;;4916310;29;20266;-75
2024/02/05 16:04:14;;;;;;;7.43;1.67;;;9.70;99.90;;;;;;4916356;29;20253;-74
2024/02/05 16:06:41;;;;;;;6.50;2.17;;;9.70;99.90;;;;;;4916449;29;20233;-76
2024/02/05 16:09:08;;;;;;;3.63;1.43;;;9.60;99.90;;;;;;4916270;29;20245;-75
2024/02/05 16:11:35;;;;;;;7.83;1.70;;;9.60;99.90;;;;;;4913839;29;20720;-76
2024/02/05 16:14:03;;;;;;;10.40;3.00;;;9.50;99.90;;;;;;4915966;29;20267;-75
2024/02/05 16:16:30;;;;;;;6.03;2.17;;;9.50;99.90;;;;;;4916381;29;20225;-76
2024/02/05 16:18:57;;;;;;;5.20;1.80;;;9.50;99.90;;;;;;4916296;29;20669;-77
2024/02/05 16:21:26;;;;;;;7.20;2.40;;;9.50;99.90;;;;;;4915966;29;20217;-76
2024/02/05 16:23:53;;;;;;;8.97;2.27;;;9.50;99.90;;;;;;4915478;29;20205;-77
2024/02/05 16:26:19;;;;;;;11.60;2.27;;;9.50;99.90;;;;;;4915900;29;20264;-76
2024/02/05 16:28:46;;;;;;;5.97;2.03;;;9.60;99.90;;;;;;4916142;29;20222;-75
2024/02/05 16:31:13;;;;;;;7.97;2.30;;;9.50;99.90;;;;;;4913599;29;20237;-76
2024/02/05 16:33:40;;;;;;;6.00;2.40;;;9.50;99.90;;;;;;4916173;29;20201;-76
2024/02/05 16:36:09;;;;;;;9.93;1.80;;;9.40;99.90;;;;;;4915757;29;20272;-76
2024/02/05 16:38:38;;;;;;;20.33;2.17;;;9.30;99.90;;;;;;4913478;29;20676;-76
2024/02/05 16:41:07;;;;;;;6.33;2.63;;;9.30;99.90;;;;;;4915813;29;20241;-77
2024/02/05 16:43:34;;;;;;;4.80;2.00;;;9.40;99.90;;;;;;4915689;29;20257;-77
2024/02/05 16:46:01;;;;;;;6.10;2.17;;;9.30;99.90;;;;;;4915856;29;20293;-76
2024/02/05 16:48:27;;;;;;;5.80;2.20;;;9.30;99.90;;;;;;4915904;29;20209;-77
2024/02/05 16:50:54;;;;;;;9.27;2.20;;;9.30;99.90;;;;;;4915656;29;20260;-77
2024/02/05 16:53:22;;;;;;;15.37;3.17;;;9.30;99.90;;;;;;4915744;29;20347;-77
2024/02/05 16:55:50;;;;;;;5.37;2.50;;;9.40;99.90;;;;;;4915202;29;20225;-77
2024/02/05 16:58:17;;;;;;;4.17;1.77;;;9.40;99.90;;;;;;4915572;29;20237;-77
2024/02/05 17:00:45;;;;;;;9.00;2.23;;;9.40;99.90;;;;;;4915686;29;20206;-78
2024/02/05 17:03:12;;;;;;;8.63;3.13;;;9.30;99.90;;;;;;4915299;29;20653;-76
2024/02/05 17:05:40;;;;;;;9.47;1.90;;;9.30;99.90;;;;;;4915653;29;20221;-79
2024/02/05 17:08:07;;;;;;;5.77;2.37;;;9.40;99.90;;;;;;4917379;29;20256;-79
2024/02/05 17:10:35;;;;;;;8.93;3.00;;;9.40;99.90;;;;;;4914949;29;20245;-77
2024/02/05 17:13:03;;;;;;;8.90;2.47;;;9.40;99.90;;;;;;4915669;29;20629;-76
2024/02/05 17:15:30;;;;;;;14.23;2.23;;;9.30;99.90;;;;;;4916260;29;20232;-76
2024/02/05 17:18:00;;;;;;;10.07;2.00;;;9.30;99.90;;;;;;4918252;29;20293;-77
2024/02/05 17:20:27;;;;;;;8.60;1.70;;;9.30;99.90;;;;;;4912807;29;20206;-76
2024/02/05 17:22:54;;;;;;;3.20;1.53;;;9.40;99.90;;;;;;4908685;29;20201;-81
2024/02/05 17:25:21;;;;;;;7.73;1.90;;;9.30;99.90;;;;;;4915062;29;20325;-78
2024/02/05 17:27:48;;;;;;;8.53;1.97;;;9.30;99.90;;;;;;4912523;29;20264;-83
2024/02/05 17:30:16;;;;;;;8.50;2.33;;;9.30;99.90;;;;;;4932251;29;20209;-80
2024/02/05 17:32:43;;;;;;;11.77;2.33;;;9.30;99.90;;;;;;4903108;29;20210;-82
2024/02/05 17:35:10;;;;;;;8.20;2.47;;;9.30;99.90;;;;;;4896679;29;20732;-79
2024/02/05 17:37:37;;;;;;;5.33;1.63;;;9.30;99.90;;;;;;4896239;29;20273;-76
2024/02/05 17:40:04;;;;;;;8.93;2.10;;;9.30;99.90;;;;;;4903245;29;20206;-76
2024/02/05 17:42:31;;;;;;;4.77;1.97;;;9.30;99.90;;;;;;4904263;29;20350;-76
2024/02/05 17:44:58;;;;;;;4.07;1.93;;;9.30;99.90;;;;;;4896079;29;20286;-77
2024/02/05 17:47:26;;;;;;;10.30;2.93;;;9.30;99.90;;;;;;4896447;29;20238;-78
2024/02/05 17:49:53;;;;;;;8.33;2.37;;;9.30;99.90;;;;;;4898928;29;20238;-77
2024/02/05 17:52:20;;;;;;;6.07;1.90;;;9.30;99.90;;;;;;4905910;29;20270;-77
2024/02/05 17:54:48;;;;;;;5.43;1.90;;;9.20;99.90;;;;;;4896383;29;20265;-77
2024/02/05 17:57:15;;;;;;;4.63;1.33;;;9.20;99.90;;;;;;4896209;29;20244;-77
2024/02/05 17:59:42;;;;;;;18.00;2.33;;;9.20;99.90;;;;;;4896849;29;20246;-76
2024/02/05 18:02:09;;;;;;;8.10;1.33;;;9.30;99.90;;;;;;4908186;29;20233;-77
2024/02/05 18:04:38;;;;;;;7.87;1.40;;;9.30;99.90;;;;;;4895966;29;20266;-79
2024/02/05 18:07:05;;;;;;;12.37;2.10;;;9.30;99.90;;;;;;4896129;29;20309;-77
2024/02/05 18:09:32;;;;;;;5.67;1.93;;;9.30;99.90;;;;;;4896392;29;20254;-80
2024/02/05 18:11:59;;;;;;;4.37;1.40;;;9.30;99.90;;;;;;4909096;29;20563;-75
2024/02/05 18:14:26;;;;;;;3.33;1.53;;;9.40;99.90;;;;;;4895704;29;20837;-78
2024/02/05 18:16:52;;;;;;;9.30;1.80;;;9.40;99.90;;;;;;4905268;29;20239;-78
2024/02/05 18:19:19;;;;;;;3.93;1.47;;;9.50;99.90;;;;;;4917380;29;20386;-83
2024/02/05 18:21:48;;;;;;;3.80;1.93;;;9.40;99.90;;;;;;4912585;29;20210;-79
2024/02/05 18:24:15;;;;;;;7.17;2.13;;;9.40;99.90;;;;;;4895398;29;20341;-77
2024/02/05 18:26:42;;;;;;;2.47;1.07;;;9.40;99.90;;;;;;4908144;29;20208;-77
2024/02/05 18:29:08;;;;;;;6.60;1.40;;;9.40;99.90;;;;;;4918450;29;20681;-74
2024/02/05 18:31:35;;;;;;;7.90;1.60;;;9.40;99.90;;;;;;4918201;29;20709;-76
2024/02/05 18:34:02;;;;;;;8.93;1.87;;;9.40;99.90;;;;;;4918163;29;20651;-76
2024/02/05 18:36:29;;;;;;;3.00;1.10;;;9.40;99.90;;;;;;4923912;29;20202;-76
2024/02/05 18:38:57;;;;;;;7.67;2.97;;;9.40;99.90;;;;;;4930282;29;20320;-76
2024/02/05 18:41:25;;;;;;;6.83;2.10;;;9.40;99.90;;;;;;4920030;29;20661;-76
2024/02/05 18:43:52;;;;;;;8.53;1.43;;;9.40;99.90;;;;;;4937166;29;20209;-75
2024/02/05 18:46:19;;;;;;;3.77;1.70;;;9.40;99.90;;;;;;4930414;29;20235;-76
2024/02/05 18:48:47;;;;;;;3.10;1.63;;;9.40;99.90;;;;;;4937757;29;20237;-76
2024/02/05 18:51:14;;;;;;;3.03;1.23;;;9.40;99.90;;;;;;4935690;28;20272;-76
2024/02/05 18:53:41;;;;;;;9.40;1.70;;;9.40;99.90;;;;;;4933642;29;20300;-79
2024/02/05 18:56:10;;;;;;;9.37;3.20;;;9.40;99.90;;;;;;4926646;29;20257;-80
2024/02/05 18:58:38;;;;;;;13.60;2.17;;;9.30;99.90;;;;;;4924245;29;20681;-78
2024/02/05 19:01:05;;;;;;;4.83;1.77;;;9.40;99.90;;;;;;4934308;29;20261;-77
2024/02/05 19:03:32;;;;;;;5.23;2.00;;;9.30;99.90;;;;;;4919048;29;20431;-78
2024/02/05 19:05:59;;;;;;;2.73;1.57;;;9.30;99.90;;;;;;4919407;29;20269;-82
2024/02/05 19:08:26;;;;;;;5.40;2.17;;;9.20;99.90;;;;;;4919771;29;20242;-80
2024/02/05 19:10:53;;;;;;;4.33;1.80;;;9.30;99.90;;;;;;4920644;29;20673;-79
2024/02/05 19:13:24;;;;;;;3.93;1.50;;;9.30;99.90;;;;;;4919213;29;20213;-80
2024/02/05 19:15:51;;;;;;;7.90;2.03;;;9.30;99.90;;;;;;4919754;29;20277;-79
2024/02/05 19:18:18;;;;;;;4.30;1.67;;;9.40;99.90;;;;;;4925868;29;20290;-80
2024/02/05 19:20:45;;;;;;;6.83;1.80;;;9.40;99.90;;;;;;4919420;29;20242;-82
2024/02/05 19:23:12;;;;;;;5.47;1.80;;;9.40;99.90;;;;;;4919231;29;20241;-79
2024/02/05 19:25:40;;;;;;;4.53;1.40;;;9.40;99.90;;;;;;4918929;29;20229;-80
2024/02/05 19:28:07;;;;;;;4.83;1.63;;;9.50;99.90;;;;;;4904357;29;20246;-79
2024/02/05 19:30:35;;;;;;;7.53;1.90;;;9.50;99.90;;;;;;4919837;29;20630;-80
2024/02/05 19:33:02;;;;;;;6.57;1.90;;;9.50;99.90;;;;;;4919110;29;20216;-79
2024/02/05 19:35:29;;;;;;;2.90;1.40;;;9.40;99.90;;;;;;4936040;29;20252;-79
2024/02/05 19:37:56;;;;;;;3.83;1.90;;;9.40;99.90;;;;;;4936251;29;20328;-78
2024/02/05 19:40:24;;;;;;;7.97;2.23;;;9.40;99.90;;;;;;4937406;29;20670;-78
2024/02/05 19:42:51;;;;;;;27.20;2.57;;;9.40;99.90;;;;;;4936715;29;20219;-78
2024/02/05 19:45:19;;;;;;;4.80;1.67;;;9.40;99.90;;;;;;4923713;29;20230;-77
2024/02/05 19:47:47;;;;;;;3.90;1.67;;;9.40;99.90;;;;;;4918616;29;20201;-76
2024/02/05 19:50:14;;;;;;;3.67;1.37;;;9.40;99.90;;;;;;4917996;29;20245;-77
2024/02/05 19:52:41;;;;;;;5.40;1.63;;;9.40;99.90;;;;;;4918481;29;20241;-78
2024/02/05 19:55:09;;;;;;;3.97;1.80;;;9.40;99.90;;;;;;4918417;29;20267;-78
2024/02/05 19:57:36;;;;;;;6.97;2.00;;;9.50;99.90;;;;;;4918519;29;20239;-78
2024/02/05 20:00:04;;;;;;;6.30;2.20;;;9.50;99.90;;;;;;4928570;29;20220;-77
2024/02/05 20:02:32;;;;;;;5.20;1.60;;;9.60;99.90;;;;;;4915089;29;20672;-78
2024/02/05 20:05:00;;;;;;;6.23;1.70;;;9.60;99.90;;;;;;4932502;29;20719;-79
2024/02/05 20:07:27;;;;;;;6.70;1.93;;;9.70;99.90;;;;;;4936895;29;20219;-77
2024/02/05 20:09:56;;;;;;;5.80;1.53;;;9.60;99.90;;;;;;4935767;29;20236;-77
2024/02/05 20:12:23;;;;;;;3.37;1.50;;;9.60;99.90;;;;;;4936800;29;20648;-77
2024/02/05 20:14:49;;;;;;;2.47;1.40;;;9.60;99.90;;;;;;4934897;29;20308;-77
2024/02/05 20:17:16;;;;;;;4.37;1.70;;;9.60;99.90;;;;;;4935960;29;20291;-77
2024/02/05 20:19:43;;;;;;;3.30;1.30;;;9.60;99.90;;;;;;4935194;29;20213;-77
2024/02/05 20:22:12;;;;;;;5.10;1.53;;;9.60;99.90;;;;;;4936265;29;20731;-76
2024/02/05 20:24:39;;;;;;;3.00;1.40;;;9.70;99.90;;;;;;4934520;29;20319;-77
2024/02/05 20:27:06;;;;;;;3.53;1.30;;;9.70;99.90;;;;;;4936417;29;20311;-77
2024/02/05 20:29:33;;;;;;;7.23;1.30;;;9.60;99.90;;;;;;4934870;29;20639;-77
2024/02/05 20:31:59;;;;;;;4.63;1.63;;;9.60;99.90;;;;;;4936018;29;20303;-76
2024/02/05 20:34:26;;;;;;;4.00;1.70;;;9.70;99.90;;;;;;4928971;29;20260;-77
2024/02/05 20:36:53;;;;;;;3.40;1.40;;;9.80;99.90;;;;;;4903361;29;20626;-77
2024/02/05 20:39:23;;;;;;;4.83;1.83;;;9.80;99.90;;;;;;4917289;29;20328;-77
2024/02/05 20:41:50;;;;;;;3.77;1.13;;;9.70;99.90;;;;;;4917457;29;20322;-77
2024/02/05 20:44:16;;;;;;;3.50;1.50;;;9.60;99.90;;;;;;4917413;29;20696;-77
2024/02/05 20:46:44;;;;;;;1.80;1.00;;;9.60;99.90;;;;;;4917741;29;20237;-77
2024/02/05 20:49:11;;;;;;;1.63;1.10;;;9.60;99.90;;;;;;4917065;29;20298;-77
2024/02/05 20:51:37;;;;;;;4.73;2.37;;;9.50;99.90;;;;;;4918068;29;20249;-77
2024/02/05 20:54:05;;;;;;;7.70;2.90;;;9.60;99.90;;;;;;4917616;29;20712;-77
2024/02/05 20:56:33;;;;;;;7.13;2.97;;;9.50;99.90;;;;;;4917722;29;20216;-77
2024/02/05 20:59:00;;;;;;;5.57;1.37;;;9.40;99.90;;;;;;4917200;29;20788;-77
2024/02/05 21:01:27;;;;;;;4.10;1.70;;;9.40;99.90;;;;;;4918079;29;20202;-78
2024/02/05 21:03:55;;;;;;;4.43;1.40;;;9.30;99.90;;;;;;4917463;29;20242;-78
2024/02/05 21:06:22;;;;;;;3.17;2.47;;;9.20;99.90;;;;;;4917651;29;20237;-76
2024/02/05 21:08:49;;;;;;;3.43;1.27;;;9.20;99.90;;;;;;4912244;29;20241;-78
2024/02/05 21:11:16;;;;;;;2.00;1.17;;;9.20;99.90;;;;;;4904837;29;20253;-77
2024/02/05 21:13:44;;;;;;;3.67;2.17;;;9.20;99.90;;;;;;4917536;29;20255;-77
2024/02/05 21:16:14;;;;;;;4.93;1.90;;;9.20;99.90;;;;;;4916870;29;20242;-77
2024/02/05 21:18:41;;;;;;;2.30;1.20;;;9.10;99.90;;;;;;4915928;29;20292;-77
2024/02/05 21:21:08;;;;;;;3.30;1.33;;;9.10;99.90;;;;;;4916452;29;20241;-78
2024/02/05 21:23:35;;;;;;;3.83;1.70;;;9.20;99.90;;;;;;4916717;29;20288;-76
2024/02/05 21:26:02;;;;;;;2.93;1.50;;;9.20;99.90;;;;;;4916951;29;20292;-76
2024/02/05 21:28:29;;;;;;;2.93;1.30;;;9.20;99.90;;;;;;4916255;29;20628;-77